Terminal Aerodrome Forecast
Issued by NWS Jackson, MS

Current Version | Previous Version | Text Only | Print | Product List | Glossary On
Versions: 1 2 3 4 5 6 7 8 9 10 11 12
000
FTUS44 KJAN 031129
TAFHBG
TAF
KHBG 031129Z 0312/0412 00000KT P6SM SCT120 BKN200
     FM031330 VRB03KT P6SM VCSH SCT040 SCT200
     FM031900 19005KT P6SM VCTS SCT030CB BKN100
     FM032200 19005KT P6SM SCT100 BKN200=

USA.gov is the U.S. government's official web portal to all federal, state and local government web resources and services.